Time;durP1;ratioP1;P1;durP2;ratioP2;P2;SDS_P1;SDS_P2;PMS_P1;PMS_P2;Temp;Humidity;BMP_temperature;BMP_pressure;BME280_temperature;BME280_humidity;BME280_pressure;Samples;Min_cycle;Max_cycle;Signal;HPM_P1;HPM_P2
2021/08/28 00:01:46;;;;;;;10.93;3.60;;;;;;;;;;4986661;28;20038;-73
2021/08/28 00:04:13;;;;;;;14.23;4.40;;;;;;;;;;4984537;28;20101;-73
2021/08/28 00:06:40;;;;;;;10.48;4.15;;;;;;;;;;5000300;28;20042;-72
2021/08/28 00:09:07;;;;;;;10.57;4.65;;;;;;;;;;4986533;28;20046;-72
2021/08/28 00:11:34;;;;;;;13.63;4.60;;;;;;;;;;4986298;28;20049;-72
2021/08/28 00:14:02;;;;;;;9.77;4.03;;;;;;;;;;4985942;28;20045;-72
2021/08/28 00:16:30;;;;;;;14.25;4.55;;;;;;;;;;4986229;28;20038;-72
2021/08/28 00:18:57;;;;;;;12.82;4.35;;;;;;;;;;4985882;28;20066;-72
2021/08/28 00:21:24;;;;;;;10.20;4.20;;;;;;;;;;4986407;28;20042;-75
2021/08/28 00:23:51;;;;;;;11.35;4.45;;;;;;;;;;4984089;28;20416;-71
2021/08/28 00:26:18;;;;;;;12.70;4.13;;;;;;;;;;4983453;28;20086;-72
2021/08/28 00:28:46;;;;;;;10.07;3.70;;;;;;;;;;4986129;28;20062;-73
2021/08/28 00:31:13;;;;;;;12.98;4.13;;;;;;;;;;4984198;28;20049;-71
2021/08/28 00:33:40;;;;;;;9.98;3.75;;;;;;;;;;4984660;28;25032;-71
2021/08/28 00:36:07;;;;;;;11.60;3.75;;;;;;;;;;4985442;28;20054;-72
2021/08/28 00:38:34;;;;;;;10.93;4.60;;;;;;;;;;4984822;28;20043;-70
2021/08/28 00:41:01;;;;;;;13.55;4.78;;;;;;;;;;4985692;28;20045;-71
2021/08/28 00:43:29;;;;;;;8.88;3.67;;;;;;;;;;4985462;28;20054;-71
2021/08/28 00:45:57;;;;;;;14.32;3.97;;;;;;;;;;4967193;28;20050;-74
2021/08/28 00:48:25;;;;;;;11.30;3.03;;;;;;;;;;4986696;28;20065;-73
2021/08/28 00:50:54;;;;;;;9.48;2.42;;;;;;;;;;4986870;28;20038;-70
2021/08/28 00:53:22;;;;;;;8.95;2.00;;;;;;;;;;4985082;28;20038;-72
2021/08/28 00:55:51;;;;;;;7.20;2.10;;;;;;;;;;4986625;28;20451;-70
2021/08/28 00:58:19;;;;;;;12.98;2.85;;;;;;;;;;4986419;28;20038;-70
2021/08/28 01:00:51;;;;;;;12.18;2.67;;;;;;;;;;4986176;28;20043;-71
2021/08/28 01:03:25;;;;;;;7.70;2.33;;;;;;;;;;4984585;28;20039;-70
2021/08/28 01:06:10;;;;;;;8.38;1.83;;;;;;;;;;4986447;28;20038;-71
2021/08/28 01:08:58;;;;;;;9.18;2.10;;;;;;;;;;4985857;28;20039;-69
2021/08/28 01:11:43;;;;;;;9.65;2.00;;;;;;;;;;4986065;28;20101;-70
2021/08/28 01:14:15;;;;;;;8.98;1.75;;;;;;;;;;4985507;28;20062;-71
2021/08/28 01:16:48;;;;;;;13.25;2.22;;;;;;;;;;4985912;28;20046;-70
2021/08/28 01:19:39;;;;;;;11.85;2.20;;;;;;;;;;4985960;28;20038;-71
2021/08/28 01:22:13;;;;;;;11.95;2.80;;;;;;;;;;4981195;28;20408;-70
2021/08/28 01:24:43;;;;;;;11.82;2.85;;;;;;;;;;4986029;28;20125;-70
2021/08/28 01:27:37;;;;;;;9.43;2.85;;;;;;;;;;4999850;28;20504;-74
2021/08/28 01:30:04;;;;;;;15.05;7.05;;;;;;;;;;4985777;28;20069;-71
2021/08/28 01:32:32;;;;;;;14.70;4.32;;;;;;;;;;4985144;28;20500;-73
2021/08/28 01:35:00;;;;;;;11.02;3.30;;;;;;;;;;4983643;28;20193;-74
2021/08/28 01:37:28;;;;;;;9.70;2.75;;;;;;;;;;4985572;28;20523;-71
2021/08/28 01:40:02;;;;;;;12.10;2.78;;;;;;;;;;4983637;28;20042;-71
2021/08/28 01:42:31;;;;;;;10.07;2.50;;;;;;;;;;4983793;28;20042;-71
2021/08/28 01:44:59;;;;;;;15.10;2.92;;;;;;;;;;4983484;28;20046;-71
2021/08/28 01:47:28;;;;;;;16.17;3.08;;;;;;;;;;4985753;28;20125;-70
2021/08/28 01:49:58;;;;;;;12.45;3.35;;;;;;;;;;4983779;28;20058;-71
2021/08/28 01:52:25;;;;;;;9.02;2.95;;;;;;;;;;4983432;28;20046;-71
2021/08/28 01:54:53;;;;;;;12.13;3.35;;;;;;;;;;4983841;28;20061;-72
2021/08/28 01:57:20;;;;;;;12.57;3.00;;;;;;;;;;4985107;28;20117;-72
2021/08/28 01:59:47;;;;;;;9.70;2.65;;;;;;;;;;4983298;28;20050;-72
2021/08/28 02:02:14;;;;;;;12.00;2.45;;;;;;;;;;4999745;28;20065;-70
2021/08/28 02:04:42;;;;;;;9.52;3.53;;;;;;;;;;4984037;28;20042;-72
2021/08/28 02:07:23;;;;;;;11.43;3.28;;;;;;;;;;4984551;28;20181;-73
2021/08/28 02:10:13;;;;;;;15.43;2.97;;;;;;;;;;4984598;28;20042;-70
2021/08/28 02:12:48;;;;;;;10.55;2.47;;;;;;;;;;4970431;28;20501;-71
2021/08/28 02:15:28;;;;;;;16.42;3.10;;;;;;;;;;4970755;28;20126;-70
2021/08/28 02:18:09;;;;;;;10.57;2.47;;;;;;;;;;4984999;28;20046;-74
2021/08/28 02:20:41;;;;;;;9.77;2.83;;;;;;;;;;4978899;28;20064;-70
2021/08/28 02:23:12;;;;;;;13.00;3.10;;;;;;;;;;4965496;28;20097;-69
2021/08/28 02:25:54;;;;;;;9.82;3.25;;;;;;;;;;4963833;28;20043;-69
2021/08/28 02:28:28;;;;;;;10.40;2.95;;;;;;;;;;4964168;28;20039;-69
2021/08/28 02:30:58;;;;;;;12.90;2.85;;;;;;;;;;4964369;28;20046;-69
2021/08/28 02:33:25;;;;;;;10.55;3.15;;;;;;;;;;4976480;28;20042;-75
2021/08/28 02:35:54;;;;;;;14.27;3.17;;;;;;;;;;4977387;28;20057;-70
2021/08/28 02:38:23;;;;;;;9.55;2.97;;;;;;;;;;4999572;28;20046;-69
2021/08/28 02:40:52;;;;;;;11.52;3.03;;;;;;;;;;4965824;28;20132;-69
2021/08/28 02:43:23;;;;;;;15.32;3.03;;;;;;;;;;4968544;28;20065;-69
2021/08/28 02:45:51;;;;;;;9.63;2.83;;;;;;;;;;4980602;28;20505;-69
2021/08/28 02:48:21;;;;;;;11.25;3.00;;;;;;;;;;4969961;28;20047;-70
2021/08/28 02:50:49;;;;;;;12.55;3.20;;;;;;;;;;4984686;28;20165;-74
2021/08/28 02:53:19;;;;;;;14.70;2.85;;;;;;;;;;4977941;28;20073;-69
2021/08/28 02:55:48;;;;;;;11.75;3.13;;;;;;;;;;4975067;28;20048;-69
2021/08/28 02:58:16;;;;;;;9.68;2.78;;;;;;;;;;4985388;28;20081;-69
2021/08/28 03:00:44;;;;;;;9.65;3.85;;;;;;;;;;4983010;28;20093;-69
2021/08/28 03:03:15;;;;;;;12.90;3.63;;;;;;;;;;4980269;28;20042;-70
2021/08/28 03:05:46;;;;;;;11.20;4.07;;;;;;;;;;4984055;28;20540;-70
2021/08/28 03:08:15;;;;;;;13.43;3.50;;;;;;;;;;4967738;28;20090;-69
2021/08/28 03:10:45;;;;;;;11.57;3.53;;;;;;;;;;4964748;28;20046;-72
2021/08/28 03:13:13;;;;;;;12.82;3.50;;;;;;;;;;4967680;28;20047;-71
2021/08/28 03:15:44;;;;;;;13.88;3.50;;;;;;;;;;4965469;28;20042;-73
2021/08/28 03:18:12;;;;;;;12.02;3.50;;;;;;;;;;4983611;28;20057;-69
2021/08/28 03:20:42;;;;;;;14.50;3.38;;;;;;;;;;4982330;28;20050;-69
2021/08/28 03:23:13;;;;;;;12.82;3.25;;;;;;;;;;4964432;28;20049;-70
2021/08/28 03:25:41;;;;;;;13.98;3.65;;;;;;;;;;4963185;28;20046;-70
2021/08/28 03:28:09;;;;;;;;;;;;;;;;;;4965288;28;20039;-69
2021/08/28 03:30:37;;;;;;;10.85;3.90;;;;;;;;;;4964842;28;19918;-69
2021/08/28 03:33:04;;;;;;;13.95;4.22;;;;;;;;;;4962881;28;20038;-69
2021/08/28 03:35:31;;;;;;;15.05;4.00;;;;;;;;;;4979661;28;20054;-71
2021/08/28 03:37:59;;;;;;;13.63;3.45;;;;;;;;;;4964031;28;20030;-69
2021/08/28 03:40:26;;;;;;;20.45;4.20;;;;;;;;;;4964456;28;20170;-69
2021/08/28 03:42:54;;;;;;;14.60;4.43;;;;;;;;;;4963450;28;20126;-69
2021/08/28 03:45:27;;;;;;;10.77;4.18;;;;;;;;;;4963054;28;20039;-71
2021/08/28 03:47:54;;;;;;;9.90;3.95;;;;;;;;;;4964600;28;20387;-70
2021/08/28 03:50:24;;;;;;;13.13;4.03;;;;;;;;;;4964503;28;20093;-72
2021/08/28 03:52:52;;;;;;;14.25;4.60;;;;;;;;;;4965004;28;20126;-69
2021/08/28 03:55:19;;;;;;;12.85;4.43;;;;;;;;;;4979465;28;20046;-69
2021/08/28 03:57:46;;;;;;;15.00;4.80;;;;;;;;;;4964284;28;20502;-75
2021/08/28 04:00:14;;;;;;;12.00;4.35;;;;;;;;;;4967208;28;20038;-69
2021/08/28 04:02:41;;;;;;;13.05;4.82;;;;;;;;;;4971100;28;20473;-69
2021/08/28 04:05:08;;;;;;;9.98;3.95;;;;;;;;;;4964406;28;20070;-69
2021/08/28 04:07:40;;;;;;;12.38;4.30;;;;;;;;;;4962880;28;20105;-69
2021/08/28 04:10:08;;;;;;;22.95;6.55;;;;;;;;;;4964526;28;20501;-69
2021/08/28 04:12:36;;;;;;;16.70;5.95;;;;;;;;;;4978816;28;20481;-70
2021/08/28 04:15:04;;;;;;;16.77;5.15;;;;;;;;;;4964466;28;20043;-69
2021/08/28 04:17:32;;;;;;;18.13;5.97;;;;;;;;;;4962560;28;20039;-69
2021/08/28 04:20:00;;;;;;;12.43;5.93;;;;;;;;;;4964634;28;20038;-69
2021/08/28 04:22:28;;;;;;;17.08;5.63;;;;;;;;;;4973454;28;20042;-69
2021/08/28 04:24:55;;;;;;;14.40;7.65;;;;;;;;;;4983299;28;20045;-71
2021/08/28 04:27:22;;;;;;;19.20;11.57;;;;;;;;;;4983515;28;20046;-70
2021/08/28 04:29:49;;;;;;;16.40;6.78;;;;;;;;;;4987592;28;20038;-69
2021/08/28 04:32:16;;;;;;;14.40;5.97;;;;;;;;;;4986951;28;20053;-70
2021/08/28 04:34:43;;;;;;;13.85;5.72;;;;;;;;;;5001580;28;20048;-70
2021/08/28 04:37:11;;;;;;;14.23;6.28;;;;;;;;;;4985704;28;20034;-69
2021/08/28 04:39:39;;;;;;;12.23;5.75;;;;;;;;;;5001151;28;20077;-70
2021/08/28 04:42:07;;;;;;;26.02;11.70;;;;;;;;;;4970918;28;20401;-69
2021/08/28 04:44:34;;;;;;;57.38;25.13;;;;;;;;;;4978347;28;20082;-70
2021/08/28 04:47:02;;;;;;;22.35;9.93;;;;;;;;;;4967388;28;20043;-69
2021/08/28 04:49:29;;;;;;;14.95;6.45;;;;;;;;;;4967694;28;20113;-71
2021/08/28 04:51:56;;;;;;;13.77;4.60;;;;;;;;;;4980290;28;20066;-70
2021/08/28 04:54:23;;;;;;;12.85;4.68;;;;;;;;;;4964442;28;20425;-74
2021/08/28 04:56:50;;;;;;;16.02;4.72;;;;;;;;;;4967314;28;20039;-69
2021/08/28 04:59:17;;;;;;;16.52;4.57;;;;;;;;;;4967019;28;20046;-70
2021/08/28 05:01:45;;;;;;;14.70;4.63;;;;;;;;;;4964714;28;20057;-74
2021/08/28 05:04:12;;;;;;;15.07;5.35;;;;;;;;;;4967207;28;20041;-70
2021/08/28 05:06:39;;;;;;;15.00;4.72;;;;;;;;;;4967177;28;20070;-70
2021/08/28 05:09:06;;;;;;;15.85;6.43;;;;;;;;;;4983476;28;20046;-72
2021/08/28 05:11:33;;;;;;;11.63;5.45;;;;;;;;;;4965689;28;20053;-69
2021/08/28 05:14:00;;;;;;;16.40;5.78;;;;;;;;;;4981596;28;20043;-70
2021/08/28 05:16:27;;;;;;;16.77;5.63;;;;;;;;;;4967220;28;20069;-70
2021/08/28 05:18:55;;;;;;;15.90;5.70;;;;;;;;;;4966568;28;20042;-69
2021/08/28 05:21:22;;;;;;;13.77;5.63;;;;;;;;;;4964888;28;20043;-69
2021/08/28 05:23:49;;;;;;;19.85;6.55;;;;;;;;;;4981569;28;20055;-69
2021/08/28 05:26:16;;;;;;;17.35;6.82;;;;;;;;;;4966190;28;20382;-73
2021/08/28 05:28:43;;;;;;;19.83;7.60;;;;;;;;;;4966446;28;20046;-71
2021/08/28 05:31:10;;;;;;;15.23;6.70;;;;;;;;;;4966924;28;20057;-69
2021/08/28 05:33:37;;;;;;;15.95;6.82;;;;;;;;;;4966327;28;20466;-72
2021/08/28 05:36:05;;;;;;;20.58;8.10;;;;;;;;;;4965099;28;20143;-71
2021/08/28 05:38:32;;;;;;;20.95;7.28;;;;;;;;;;4974190;28;20042;-71
2021/08/28 05:41:00;;;;;;;20.25;6.72;;;;;;;;;;4964097;28;20082;-72
2021/08/28 05:43:28;;;;;;;13.70;6.47;;;;;;;;;;4964713;28;20070;-72
2021/08/28 05:45:55;;;;;;;16.58;5.78;;;;;;;;;;4966270;28;20066;-72
2021/08/28 05:48:23;;;;;;;11.00;4.90;;;;;;;;;;4966067;28;20070;-68
2021/08/28 05:50:50;;;;;;;10.80;4.15;;;;;;;;;;4964668;28;20473;-71
2021/08/28 05:53:18;;;;;;;14.57;4.45;;;;;;;;;;4964611;28;20443;-69
2021/08/28 05:55:45;;;;;;;9.63;4.20;;;;;;;;;;4964803;28;20047;-76
2021/08/28 05:58:12;;;;;;;12.85;4.38;;;;;;;;;;4966092;28;20065;-71
2021/08/28 06:00:39;;;;;;;14.73;4.35;;;;;;;;;;4966380;28;20043;-68
2021/08/28 06:03:06;;;;;;;11.82;5.65;;;;;;;;;;4965636;28;20066;-72
2021/08/28 06:05:33;;;;;;;10.63;4.55;;;;;;;;;;4965621;28;20557;-72
2021/08/28 06:08:01;;;;;;;11.20;5.97;;;;;;;;;;4966223;28;20043;-71
2021/08/28 06:10:28;;;;;;;15.43;5.97;;;;;;;;;;4980317;28;20043;-69
2021/08/28 06:12:55;;;;;;;13.07;5.80;;;;;;;;;;4964010;28;20050;-71
2021/08/28 06:15:22;;;;;;;14.40;6.57;;;;;;;;;;4980908;28;20454;-71
2021/08/28 06:17:49;;;;;;;23.80;9.68;;;;;;;;;;4965037;28;20125;-71
2021/08/28 06:20:17;;;;;;;21.90;8.65;;;;;;;;;;4964352;28;20054;-75
2021/08/28 06:22:44;;;;;;;22.90;8.48;;;;;;;;;;4980344;28;20085;-71
2021/08/28 06:25:12;;;;;;;21.58;8.02;;;;;;;;;;4979891;28;20042;-71
2021/08/28 06:27:39;;;;;;;15.02;6.32;;;;;;;;;;4964329;28;20046;-71
2021/08/28 06:30:07;;;;;;;15.88;6.80;;;;;;;;;;4965535;28;20038;-75
2021/08/28 06:32:34;;;;;;;23.13;7.68;;;;;;;;;;4965283;28;20492;-72
2021/08/28 06:35:01;;;;;;;14.88;7.50;;;;;;;;;;4965590;28;20062;-71
2021/08/28 06:37:28;;;;;;;18.08;7.03;;;;;;;;;;4965122;28;20054;-72
2021/08/28 06:39:56;;;;;;;15.48;6.63;;;;;;;;;;4979703;28;20062;-73
2021/08/28 06:42:24;;;;;;;15.23;7.30;;;;;;;;;;4965580;28;20090;-74
2021/08/28 06:44:51;;;;;;;14.23;7.18;;;;;;;;;;4965289;28;20070;-70
2021/08/28 06:47:18;;;;;;;16.45;7.47;;;;;;;;;;4962950;28;20054;-69
2021/08/28 06:49:45;;;;;;;14.35;7.00;;;;;;;;;;4980099;28;20050;-72
2021/08/28 06:52:13;;;;;;;15.43;7.60;;;;;;;;;;4963288;28;20038;-71
2021/08/28 06:54:40;;;;;;;14.07;6.80;;;;;;;;;;4965511;28;20039;-71
2021/08/28 06:57:07;;;;;;;15.98;7.15;;;;;;;;;;4965206;28;20039;-72
2021/08/28 06:59:34;;;;;;;29.63;10.25;;;;;;;;;;4964956;28;20412;-72
2021/08/28 07:02:01;;;;;;;25.42;11.40;;;;;;;;;;4965277;28;20062;-70
2021/08/28 07:04:28;;;;;;;39.42;13.18;;;;;;;;;;4979393;28;20074;-69
2021/08/28 07:06:56;;;;;;;43.95;13.10;;;;;;;;;;4964888;28;21447;-71
2021/08/28 07:09:23;;;;;;;33.50;11.48;;;;;;;;;;4965160;28;20031;-70
2021/08/28 07:11:51;;;;;;;42.45;12.38;;;;;;;;;;4964817;28;20064;-71
2021/08/28 07:14:18;;;;;;;26.42;12.70;;;;;;;;;;4964982;28;20085;-71
2021/08/28 07:16:46;;;;;;;26.38;12.32;;;;;;;;;;4964968;28;20050;-75
2021/08/28 07:19:13;;;;;;;23.85;11.40;;;;;;;;;;4964771;28;20078;-70
2021/08/28 07:21:40;;;;;;;29.05;13.40;;;;;;;;;;4965030;28;20043;-70
2021/08/28 07:24:07;;;;;;;30.35;12.27;;;;;;;;;;4965067;28;20043;-70
2021/08/28 07:26:35;;;;;;;28.25;12.30;;;;;;;;;;4964458;28;20039;-72
2021/08/28 07:29:02;;;;;;;22.40;11.10;;;;;;;;;;4979674;28;20043;-70
2021/08/28 07:31:30;;;;;;;30.75;10.95;;;;;;;;;;4964219;28;20046;-71
2021/08/28 07:33:57;;;;;;;67.78;14.55;;;;;;;;;;4962986;28;20113;-71
2021/08/28 07:36:24;;;;;;;30.83;11.55;;;;;;;;;;4963483;28;20085;-75
2021/08/28 07:38:52;;;;;;;52.25;13.52;;;;;;;;;;4978724;28;20042;-71
2021/08/28 07:41:19;;;;;;;31.25;12.35;;;;;;;;;;4964700;28;20078;-71
2021/08/28 07:43:46;;;;;;;32.78;12.80;;;;;;;;;;4964553;28;20133;-72
2021/08/28 07:46:14;;;;;;;47.60;16.80;;;;;;;;;;4962722;28;20417;-71
2021/08/28 07:48:41;;;;;;;32.05;16.48;;;;;;;;;;4964445;28;20043;-70
2021/08/28 07:51:08;;;;;;;47.67;17.85;;;;;;;;;;4979630;28;20090;-70
2021/08/28 07:53:35;;;;;;;41.30;19.38;;;;;;;;;;4962770;28;20065;-72
2021/08/28 07:56:02;;;;;;;47.35;19.90;;;;;;;;;;4964332;28;20046;-71
2021/08/28 07:58:30;;;;;;;37.10;19.83;;;;;;;;;;4962828;28;20110;-71
2021/08/28 08:00:57;;;;;;;43.13;21.25;;;;;;;;;;4978425;28;20035;-71
2021/08/28 08:03:25;;;;;;;61.75;21.10;;;;;;;;;;4966428;28;20460;-70
2021/08/28 08:05:53;;;;;;;37.70;19.17;;;;;;;;;;4968178;28;20058;-74
2021/08/28 08:08:20;;;;;;;44.72;19.70;;;;;;;;;;4966373;28;20073;-71
2021/08/28 08:10:47;;;;;;;33.75;16.52;;;;;;;;;;4968544;28;20046;-71
2021/08/28 08:13:14;;;;;;;36.47;17.30;;;;;;;;;;4967886;28;20043;-74
2021/08/28 08:15:41;;;;;;;31.15;16.30;;;;;;;;;;4966347;28;20062;-73
2021/08/28 08:18:09;;;;;;;39.50;17.38;;;;;;;;;;4968407;28;20047;-70
2021/08/28 08:20:36;;;;;;;41.47;17.48;;;;;;;;;;4967914;28;20478;-71
2021/08/28 08:23:04;;;;;;;49.45;18.75;;;;;;;;;;4982732;28;20041;-70
2021/08/28 08:25:31;;;;;;;38.97;16.83;;;;;;;;;;4968110;28;20449;-70
2021/08/28 08:27:58;;;;;;;43.08;17.17;;;;;;;;;;4965713;28;20049;-71
2021/08/28 08:30:25;;;;;;;33.28;15.63;;;;;;;;;;4982388;28;20109;-71
2021/08/28 08:32:53;;;;;;;65.80;15.73;;;;;;;;;;4967409;28;20530;-70
2021/08/28 08:35:20;;;;;;;30.60;14.35;;;;;;;;;;4967406;28;20051;-72
2021/08/28 08:37:47;;;;;;;80.05;14.70;;;;;;;;;;4968003;28;20065;-70
2021/08/28 08:40:15;;;;;;;25.13;11.35;;;;;;;;;;4981958;28;20142;-70
2021/08/28 08:42:47;;;;;;;42.38;12.38;;;;;;;;;;4972895;28;20057;-75
2021/08/28 08:45:15;;;;;;;41.40;10.85;;;;;;;;;;4984703;28;20112;-70
2021/08/28 08:47:43;;;;;;;36.00;10.93;;;;;;;;;;4967779;28;20042;-70
2021/08/28 08:50:14;;;;;;;38.83;11.05;;;;;;;;;;4973669;28;20031;-70
2021/08/28 08:52:44;;;;;;;23.73;10.10;;;;;;;;;;4982375;28;20049;-71
2021/08/28 08:55:12;;;;;;;53.55;12.48;;;;;;;;;;4986982;28;20173;-68
2021/08/28 08:57:39;;;;;;;89.45;13.15;;;;;;;;;;4986838;28;20046;-70
2021/08/28 09:00:07;;;;;;;56.45;11.10;;;;;;;;;;4968642;28;20070;-71
2021/08/28 09:02:35;;;;;;;39.88;11.50;;;;;;;;;;4967021;28;20043;-74
2021/08/28 09:05:04;;;;;;;;;;;;;;;;;;4982750;28;26278;-71
2021/08/28 09:07:32;;;;;;;22.17;9.93;;;;;;;;;;4981871;28;20292;-70
2021/08/28 09:09:59;;;;;;;27.45;10.57;;;;;;;;;;4967009;28;20129;-74
2021/08/28 09:12:40;;;;;;;17.02;8.68;;;;;;;;;;4967547;28;20501;-70
2021/08/28 09:15:12;;;;;;;23.10;7.90;;;;;;;;;;4980481;28;20089;-70
2021/08/28 09:17:44;;;;;;;16.60;8.07;;;;;;;;;;4966642;28;20077;-70
2021/08/28 09:20:23;;;;;;;16.55;8.02;;;;;;;;;;4965135;28;20126;-69
2021/08/28 09:23:01;;;;;;;48.53;8.57;;;;;;;;;;4966765;28;20038;-72
2021/08/28 09:25:29;;;;;;;46.95;8.10;;;;;;;;;;4966719;28;20062;-70
2021/08/28 09:27:56;;;;;;;41.22;8.02;;;;;;;;;;4966623;28;20436;-70
2021/08/28 09:30:26;;;;;;;21.50;7.20;;;;;;;;;;4967032;28;20098;-70
2021/08/28 09:33:07;;;;;;;35.95;7.28;;;;;;;;;;4981309;28;20127;-69
2021/08/28 09:35:35;;;;;;;111.85;10.75;;;;;;;;;;4966402;28;20038;-70
2021/08/28 09:38:13;;;;;;;22.33;5.45;;;;;;;;;;4965863;28;20489;-70
2021/08/28 09:40:44;;;;;;;82.20;8.45;;;;;;;;;;4965063;28;20039;-70
2021/08/28 09:43:19;;;;;;;16.92;5.40;;;;;;;;;;4964853;28;20050;-70
2021/08/28 09:45:48;;;;;;;69.40;9.40;;;;;;;;;;4980961;28;20074;-70
2021/08/28 09:48:17;;;;;;;9.73;4.47;;;;;;;;;;4966224;28;20101;-70
2021/08/28 09:50:48;;;;;;;22.42;4.68;;;;;;;;;;4964285;28;20043;-70
2021/08/28 09:53:18;;;;;;;24.88;6.30;;;;;;;;;;4980836;28;20039;-70
2021/08/28 09:55:45;;;;;;;30.95;6.00;;;;;;;;;;4965820;28;20061;-71
2021/08/28 09:58:13;;;;;;;20.55;5.78;;;;;;;;;;4966454;28;20038;-70
2021/08/28 10:00:44;;;;;;;41.15;6.10;;;;;;;;;;4965863;28;20045;-70
2021/08/28 10:03:12;;;;;;;17.45;4.85;;;;;;;;;;4980407;28;20118;-75
2021/08/28 10:05:43;;;;;;;23.67;6.63;;;;;;;;;;4965751;28;21445;-70
2021/08/28 10:08:10;;;;;;;14.07;6.35;;;;;;;;;;4965893;28;20038;-70
2021/08/28 10:10:40;;;;;;;20.75;6.22;;;;;;;;;;4965807;28;20121;-70
2021/08/28 10:13:08;;;;;;;21.15;6.85;;;;;;;;;;4965576;28;20413;-70
2021/08/28 10:15:36;;;;;;;11.45;7.20;;;;;;;;;;4980597;28;20038;-70
2021/08/28 10:18:07;;;;;;;19.33;7.88;;;;;;;;;;4964252;28;20129;-70
2021/08/28 10:20:34;;;;;;;21.70;8.38;;;;;;;;;;4965901;28;20042;-70
2021/08/28 10:23:05;;;;;;;24.05;9.45;;;;;;;;;;4963815;28;20042;-71
2021/08/28 10:25:37;;;;;;;77.82;16.40;;;;;;;;;;4965202;28;20035;-70
2021/08/28 10:28:07;;;;;;;40.92;15.70;;;;;;;;;;4965671;28;20047;-70
2021/08/28 10:30:35;;;;;;;26.00;10.18;;;;;;;;;;4979926;28;20399;-70
2021/08/28 10:33:02;;;;;;;41.67;10.75;;;;;;;;;;4965702;28;20034;-70
2021/08/28 10:35:30;;;;;;;22.33;7.60;;;;;;;;;;4979743;28;20047;-70
2021/08/28 10:37:57;;;;;;;10.93;6.45;;;;;;;;;;4965065;28;20030;-72
2021/08/28 10:40:33;;;;;;;14.88;5.53;;;;;;;;;;4965691;28;20039;-70
2021/08/28 10:43:04;;;;;;;9.23;4.20;;;;;;;;;;4973859;28;20067;-70
2021/08/28 10:45:39;;;;;;;8.45;3.40;;;;;;;;;;4963806;28;20125;-69
2021/08/28 10:48:09;;;;;;;14.70;4.15;;;;;;;;;;4963724;28;20039;-73
2021/08/28 10:50:41;;;;;;;22.48;5.63;;;;;;;;;;4964976;28;20047;-70
2021/08/28 10:53:09;;;;;;;8.77;4.43;;;;;;;;;;4967566;28;20069;-71
2021/08/28 10:55:46;;;;;;;;;;;;;;;;;;4974776;28;20536;-70
2021/08/28 10:58:14;;;;;;;32.58;5.75;;;;;;;;;;4984693;28;20060;-70
2021/08/28 11:00:49;;;;;;;23.33;4.80;;;;;;;;;;4982705;28;20050;-71
2021/08/28 11:03:45;;;;;;;8.07;3.58;;;;;;;;;;4984357;28;20134;-70
2021/08/28 11:06:22;;;;;;;6.22;3.55;;;;;;;;;;4962187;28;20126;-74
2021/08/28 11:08:53;;;;;;;5.68;3.42;;;;;;;;;;4999374;28;20035;-70
2021/08/28 11:11:24;;;;;;;9.00;3.75;;;;;;;;;;4982644;28;20050;-70
2021/08/28 11:13:59;;;;;;;6.20;3.67;;;;;;;;;;4982558;28;20172;-70
2021/08/28 11:16:41;;;;;;;5.95;3.35;;;;;;;;;;4998536;28;20046;-70
2021/08/28 11:19:10;;;;;;;7.82;3.75;;;;;;;;;;4998922;28;20057;-70
2021/08/28 11:21:47;;;;;;;;;;;;;;;;;;4984485;28;20046;-70
2021/08/28 11:24:25;;;;;;;15.75;4.78;;;;;;;;;;4984208;28;20296;-70
2021/08/28 11:26:57;;;;;;;8.88;4.30;;;;;;;;;;4980182;28;20034;-70
2021/08/28 11:29:46;;;;;;;6.20;4.07;;;;;;;;;;4983391;28;20129;-71
2021/08/28 11:32:23;;;;;;;10.18;3.90;;;;;;;;;;4982036;28;20485;-71
2021/08/28 11:34:55;;;;;;;15.80;3.83;;;;;;;;;;4997529;28;20042;-72
2021/08/28 11:37:32;;;;;;;6.45;3.40;;;;;;;;;;4982857;28;20045;-69
2021/08/28 11:40:01;;;;;;;6.38;3.70;;;;;;;;;;4987168;28;20491;-69
2021/08/28 11:42:33;;;;;;;7.68;3.55;;;;;;;;;;4984673;28;20049;-69
2021/08/28 11:45:01;;;;;;;15.93;4.50;;;;;;;;;;4986972;28;20034;-69
2021/08/28 11:47:29;;;;;;;11.88;4.47;;;;;;;;;;4984625;28;20140;-72
2021/08/28 11:49:59;;;;;;;9.40;3.95;;;;;;;;;;4985936;28;20048;-71
2021/08/28 11:52:33;;;;;;;6.72;4.07;;;;;;;;;;4985148;28;20058;-70
2021/08/28 11:55:02;;;;;;;4.78;2.70;;;;;;;;;;4984562;28;20042;-70
2021/08/28 11:57:35;;;;;;;10.05;2.50;;;;;;;;;;4986796;28;20042;-69
2021/08/28 12:00:06;;;;;;;5.80;3.28;;;;;;;;;;4986707;28;20042;-71
2021/08/28 12:02:34;;;;;;;9.73;3.00;;;;;;;;;;4986312;28;20035;-68
2021/08/28 12:05:13;;;;;;;7.80;2.90;;;;;;;;;;4987161;28;20046;-68
2021/08/28 12:07:40;;;;;;;5.88;3.35;;;;;;;;;;4984947;28;20089;-69
2021/08/28 12:10:08;;;;;;;6.00;3.28;;;;;;;;;;4982532;28;20115;-72
2021/08/28 12:12:35;;;;;;;6.57;3.38;;;;;;;;;;4984942;28;20133;-69
2021/08/28 12:15:05;;;;;;;9.35;3.67;;;;;;;;;;4967311;28;20508;-69
2021/08/28 12:17:33;;;;;;;6.88;3.75;;;;;;;;;;4963330;28;20047;-73
2021/08/28 12:20:01;;;;;;;12.63;6.80;;;;;;;;;;4963786;28;20051;-73
2021/08/28 12:22:28;;;;;;;18.02;10.90;;;;;;;;;;4963419;28;20057;-69
2021/08/28 12:24:55;;;;;;;13.27;7.72;;;;;;;;;;4962793;28;20543;-69
2021/08/28 12:27:23;;;;;;;10.70;6.07;;;;;;;;;;4977865;28;20054;-70
2021/08/28 12:29:52;;;;;;;13.57;8.27;;;;;;;;;;4963632;28;20042;-72
2021/08/28 12:32:27;;;;;;;14.10;10.32;;;;;;;;;;4976919;28;20046;-70
2021/08/28 12:34:59;;;;;;;16.67;11.52;;;;;;;;;;4962963;28;20125;-73
2021/08/28 12:37:29;;;;;;;13.52;8.85;;;;;;;;;;4963162;28;20070;-71
2021/08/28 12:40:01;;;;;;;12.48;6.95;;;;;;;;;;4961051;28;20046;-70
2021/08/28 12:42:35;;;;;;;11.02;6.03;;;;;;;;;;4958806;28;20046;-72
2021/08/28 12:45:06;;;;;;;12.20;6.28;;;;;;;;;;4962224;28;20117;-74
2021/08/28 12:47:40;;;;;;;9.52;5.80;;;;;;;;;;4961444;28;20561;-72
2021/08/28 12:50:11;;;;;;;7.93;4.18;;;;;;;;;;4961597;28;20043;-71
2021/08/28 12:52:41;;;;;;;9.70;4.38;;;;;;;;;;4962849;28;22050;-71
2021/08/28 12:55:23;;;;;;;7.75;3.83;;;;;;;;;;4962113;28;20750;-70
2021/08/28 12:57:55;;;;;;;8.45;3.58;;;;;;;;;;4962853;28;20042;-69
2021/08/28 13:00:22;;;;;;;8.95;3.10;;;;;;;;;;4957763;28;20583;-70
2021/08/28 13:02:52;;;;;;;8.43;4.05;;;;;;;;;;4956550;28;20054;-70
2021/08/28 13:05:31;;;;;;;8.57;4.40;;;;;;;;;;4954694;28;20153;-71
2021/08/28 13:08:00;;;;;;;14.73;4.93;;;;;;;;;;4962559;28;20046;-70
2021/08/28 13:10:30;;;;;;;9.05;4.57;;;;;;;;;;4961134;28;21903;-69
2021/08/28 13:13:03;;;;;;;7.10;4.45;;;;;;;;;;4952056;28;20077;-73
2021/08/28 13:15:30;;;;;;;9.25;4.72;;;;;;;;;;4963426;28;20042;-71
2021/08/28 13:18:06;;;;;;;10.73;5.13;;;;;;;;;;4963434;28;20054;-69
2021/08/28 13:20:39;;;;;;;10.48;5.80;;;;;;;;;;4963493;28;20501;-70
2021/08/28 13:23:07;;;;;;;11.02;6.68;;;;;;;;;;4961164;28;20046;-71
2021/08/28 13:25:37;;;;;;;11.77;6.45;;;;;;;;;;4961995;28;20097;-70
2021/08/28 13:28:18;;;;;;;11.63;7.13;;;;;;;;;;4961077;28;20504;-71
2021/08/28 13:30:48;;;;;;;19.90;11.95;;;;;;;;;;4963557;28;20072;-69
2021/08/28 13:33:32;;;;;;;14.38;8.70;;;;;;;;;;4976441;28;20042;-72
2021/08/28 13:36:03;;;;;;;31.02;17.15;;;;;;;;;;4957347;28;20050;-71
2021/08/28 13:38:31;;;;;;;31.08;16.27;;;;;;;;;;4962782;28;20046;-70
2021/08/28 13:40:59;;;;;;;13.48;8.45;;;;;;;;;;4962941;28;20246;-71
2021/08/28 13:43:29;;;;;;;15.60;9.90;;;;;;;;;;4963828;28;20086;-74
2021/08/28 13:46:00;;;;;;;15.18;10.25;;;;;;;;;;4977801;28;20045;-71
2021/08/28 13:48:28;;;;;;;18.92;10.55;;;;;;;;;;4963009;28;20051;-71
2021/08/28 13:50:55;;;;;;;16.75;9.85;;;;;;;;;;4962933;28;20158;-71
2021/08/28 13:53:22;;;;;;;18.10;9.70;;;;;;;;;;4977753;28;20505;-71
2021/08/28 13:55:49;;;;;;;14.05;9.30;;;;;;;;;;4963175;28;20049;-72
2021/08/28 13:58:17;;;;;;;18.33;11.40;;;;;;;;;;4963025;28;20085;-72
2021/08/28 14:00:44;;;;;;;18.40;11.48;;;;;;;;;;4963173;28;20062;-69
2021/08/28 14:03:12;;;;;;;14.85;10.40;;;;;;;;;;4962758;28;20042;-70
2021/08/28 14:05:39;;;;;;;20.65;11.68;;;;;;;;;;4961267;28;20536;-72
2021/08/28 14:08:07;;;;;;;18.15;10.60;;;;;;;;;;4963277;28;20390;-71
2021/08/28 14:10:34;;;;;;;14.85;8.95;;;;;;;;;;4962164;28;20041;-73
2021/08/28 14:13:03;;;;;;;14.40;8.40;;;;;;;;;;4962451;28;20049;-71
2021/08/28 14:15:30;;;;;;;15.10;8.77;;;;;;;;;;4963358;28;20042;-70
2021/08/28 14:17:58;;;;;;;14.68;8.32;;;;;;;;;;4976982;28;20034;-71
2021/08/28 14:20:25;;;;;;;15.15;8.68;;;;;;;;;;4962752;28;20054;-70
2021/08/28 14:22:52;;;;;;;12.77;6.93;;;;;;;;;;4963042;28;20042;-75
2021/08/28 14:25:19;;;;;;;12.07;5.53;;;;;;;;;;4977103;28;20062;-70
2021/08/28 14:27:47;;;;;;;6.65;3.60;;;;;;;;;;4960304;28;20404;-72
2021/08/28 14:30:14;;;;;;;11.90;4.82;;;;;;;;;;4977473;28;20146;-71
2021/08/28 14:32:42;;;;;;;6.47;3.25;;;;;;;;;;4961202;28;20081;-74
2021/08/28 14:35:10;;;;;;;7.47;2.25;;;;;;;;;;4961757;28;20042;-70
2021/08/28 14:37:38;;;;;;;5.47;2.38;;;;;;;;;;4960546;28;20046;-70
2021/08/28 14:40:09;;;;;;;7.63;2.85;;;;;;;;;;4962229;28;20046;-71
2021/08/28 14:42:39;;;;;;;6.43;2.58;;;;;;;;;;4962112;28;20090;-70
2021/08/28 14:45:07;;;;;;;7.30;2.72;;;;;;;;;;4959208;28;20548;-71